createdAt,value
2023-02-24T00:04:52.533Z,13.36
2023-02-24T00:09:57.683Z,13.20
2023-02-24T00:15:01.103Z,13.75
2023-02-24T00:20:07.047Z,13.52
2023-02-24T00:25:12.322Z,13.60
2023-02-24T00:30:17.596Z,13.53
2023-02-24T00:35:21.131Z,13.40
2023-02-24T00:40:26.618Z,13.46
2023-02-24T00:45:30.790Z,13.19
2023-02-24T00:50:34.304Z,13.10
2023-02-24T00:55:40.528Z,13.26
2023-02-24T01:00:47.555Z,13.04
2023-02-24T01:05:51.575Z,13.18
2023-02-24T01:11:18.665Z,13.09
2023-02-24T01:16:22.504Z,13.19
2023-02-24T01:21:26.050Z,13.05
2023-02-24T01:26:30.982Z,13.20
2023-02-24T01:31:34.571Z,13.25
2023-02-24T01:36:39.498Z,12.87
2023-02-24T01:41:46.444Z,13.27
2023-02-24T01:46:52.140Z,13.15
2023-02-24T01:52:02.117Z,12.93
2023-02-24T01:57:08.379Z,12.75
2023-02-24T02:02:12.243Z,12.59
2023-02-24T02:07:18.104Z,12.80
2023-02-24T02:12:24.316Z,12.97
2023-02-24T02:17:32.660Z,12.70
2023-02-24T02:23:06.627Z,12.90
2023-02-24T02:28:24.359Z,13.21
2023-02-24T02:34:06.405Z,13.07
2023-02-24T02:39:14.560Z,13.30
2023-02-24T02:44:22.625Z,13.16
2023-02-24T02:49:30.863Z,13.44
2023-02-24T02:54:40.109Z,13.10
2023-02-24T02:59:50.540Z,13.08
2023-02-24T03:04:58.192Z,13.01
2023-02-24T03:10:04.390Z,12.48
2023-02-24T03:15:12.940Z,12.94
2023-02-24T03:20:22.374Z,12.78
2023-02-24T03:25:29.961Z,12.32
2023-02-24T03:30:41.443Z,11.95
2023-02-24T03:35:46.936Z,12.53
2023-02-24T03:40:51.356Z,11.88
2023-02-24T03:46:01.240Z,12.51
2023-02-24T03:51:07.773Z,12.35
2023-02-24T03:56:28.646Z,11.66
2023-02-24T04:01:37.604Z,12.36
2023-02-24T04:06:45.937Z,12.26
2023-02-24T04:11:54.058Z,11.50
2023-02-24T04:17:03.053Z,12.22
2023-02-24T04:22:11.571Z,11.92
2023-02-24T04:27:16.572Z,11.99
2023-02-24T04:32:23.130Z,12.14
2023-02-24T04:37:33.792Z,11.99
2023-02-24T04:42:41.037Z,11.98
2023-02-24T04:47:49.402Z,11.01
2023-02-24T04:52:56.103Z,11.84
2023-02-24T04:58:00.333Z,11.88
2023-02-24T05:03:05.256Z,12.06
2023-02-24T05:08:11.484Z,11.28
2023-02-24T05:13:15.988Z,12.23
2023-02-24T05:18:20.306Z,11.85
2023-02-24T05:23:27.492Z,11.69
2023-02-24T05:28:31.878Z,12.17
2023-02-24T05:33:36.232Z,12.11
2023-02-24T05:38:41.093Z,11.40
2023-02-24T05:43:48.038Z,11.79
2023-02-24T05:48:51.843Z,11.93
2023-02-24T05:53:56.612Z,11.29
2023-02-24T05:59:02.836Z,11.65
2023-02-24T06:04:07.731Z,11.49
2023-02-24T06:09:14.540Z,10.80
2023-02-24T06:14:18.160Z,11.16
2023-02-24T06:19:21.870Z,11.20
2023-02-24T06:24:26.948Z,10.84
2023-02-24T06:29:31.100Z,10.96
2023-02-24T06:34:34.575Z,10.90
2023-02-24T06:39:39.676Z,11.46
2023-02-24T06:44:43.182Z,11.02
2023-02-24T06:49:47.841Z,11.09
2023-02-24T06:54:52.686Z,10.43
2023-02-24T06:59:56.139Z,10.90
2023-02-24T07:04:59.809Z,10.13
2023-02-24T07:10:05.893Z,11.71
2023-02-24T07:15:10.206Z,10.80
2023-02-24T07:20:25.168Z,11.15
2023-02-24T07:25:33.882Z,11.60
2023-02-24T07:30:39.322Z,11.25
2023-02-24T07:35:43.444Z,11.42
2023-02-24T07:40:49.909Z,10.89
2023-02-24T07:45:53.774Z,11.03
2023-02-24T07:50:59.284Z,10.90
2023-02-24T07:56:13.348Z,11.24
2023-02-24T08:01:23.340Z,11.34
2023-02-24T08:06:37.783Z,10.84
2023-02-24T08:11:42.652Z,11.11
2023-02-24T08:16:47.940Z,11.45
2023-02-24T08:21:54.396Z,11.36
2023-02-24T08:27:05.215Z,10.60
2023-02-24T08:32:10.224Z,11.09
2023-02-24T08:37:15.620Z,10.31
2023-02-24T08:42:20.987Z,11.95
2023-02-24T08:47:30.940Z,11.68
2023-02-24T08:52:35.560Z,10.42
2023-02-24T08:57:40.424Z,10.64
2023-02-24T09:02:43.826Z,10.82
2023-02-24T09:07:54.509Z,9.92
2023-02-24T09:13:01.219Z,10.50
2023-02-24T09:18:08.214Z,10.69
2023-02-24T09:23:19.985Z,10.37
2023-02-24T09:28:27.096Z,10.66
2023-02-24T09:33:38.857Z,10.21
2023-02-24T09:44:18.573Z,10.28
2023-02-24T09:49:24.912Z,10.28
2023-02-24T09:54:32.745Z,10.81
2023-02-24T09:59:50.998Z,10.90
2023-02-24T10:05:07.087Z,10.84
2023-02-24T10:10:27.906Z,10.23
2023-02-24T10:15:59.044Z,11.23
2023-02-24T10:21:10.893Z,10.15
2023-02-24T10:26:30.552Z,10.45
2023-02-24T10:31:40.297Z,10.78
2023-02-24T10:36:47.682Z,10.58
2023-02-24T10:41:57.395Z,10.36
2023-02-24T10:47:11.533Z,10.53
2023-02-24T10:52:33.255Z,10.95
2023-02-24T10:57:58.318Z,10.58
2023-02-24T11:03:10.409Z,11.08
2023-02-24T11:08:36.700Z,10.99
2023-02-24T11:13:57.867Z,9.75
2023-02-24T11:19:02.840Z,9.95
2023-02-24T11:24:07.343Z,10.31
2023-02-24T11:29:26.771Z,10.59
2023-02-24T11:34:36.169Z,10.74
2023-02-24T11:39:48.498Z,10.47
2023-02-24T11:44:54.785Z,10.06
2023-02-24T11:50:08.730Z,10.79
2023-02-24T11:55:29.619Z,10.71
2023-02-24T12:00:34.789Z,11.10
2023-02-24T12:05:42.054Z,10.50
2023-02-24T12:10:48.631Z,10.79
2023-02-24T12:15:57.267Z,10.02
2023-02-24T12:21:06.861Z,11.02
2023-02-24T12:26:17.926Z,10.77
2023-02-24T12:31:26.124Z,10.79
2023-02-24T12:36:50.451Z,10.44
2023-02-24T12:42:01.057Z,10.52
2023-02-24T12:47:07.869Z,10.87
2023-02-24T12:52:18.207Z,9.47
2023-02-24T12:57:28.256Z,9.48
2023-02-24T13:02:38.844Z,10.51
2023-02-24T13:07:51.929Z,9.90
2023-02-24T13:13:03.649Z,10.03
2023-02-24T13:18:07.196Z,10.98
2023-02-24T13:23:21.890Z,11.05
2023-02-24T13:28:27.753Z,11.07
2023-02-24T13:33:33.444Z,10.97
2023-02-24T13:38:40.480Z,10.65
2023-02-24T13:43:54.854Z,11.56
2023-02-24T13:49:04.773Z,11.41
2023-02-24T13:54:35.650Z,11.02
2023-02-24T13:59:56.140Z,10.32
2023-02-24T14:05:03.326Z,10.95
2023-02-24T14:10:19.060Z,10.11
2023-02-24T14:15:25.362Z,11.81
2023-02-24T14:20:32.056Z,11.30
2023-02-24T14:25:39.415Z,11.07
2023-02-24T14:30:42.963Z,11.55
2023-02-24T14:35:48.546Z,10.79
2023-02-24T14:40:53.495Z,11.76
2023-02-24T14:45:58.525Z,11.85
2023-02-24T14:51:04.095Z,11.25
2023-02-24T14:56:10.657Z,11.28
2023-02-24T15:01:21.950Z,11.92
2023-02-24T15:06:26.802Z,11.92
2023-02-24T15:11:32.723Z,12.24
2023-02-24T15:16:38.701Z,11.75
2023-02-24T15:21:43.212Z,11.51
2023-02-24T15:26:54.395Z,12.38
2023-02-24T15:31:59.848Z,12.13
2023-02-24T15:37:05.885Z,11.99
2023-02-24T15:42:22.038Z,11.66
2023-02-24T15:47:27.416Z,11.88
2023-02-24T15:52:30.894Z,12.21
2023-02-24T15:57:36.609Z,10.96
2023-02-24T16:02:40.437Z,11.71
2023-02-24T16:07:45.556Z,11.46
2023-02-24T16:12:52.652Z,12.33
2023-02-24T16:17:56.852Z,12.22
2023-02-24T16:23:02.333Z,11.40
2023-02-24T16:28:07.178Z,11.67
2023-02-24T16:33:13.107Z,11.90
2023-02-24T16:38:18.095Z,11.32
2023-02-24T16:43:22.973Z,11.35
2023-02-24T16:48:27.738Z,11.91
2023-02-24T16:53:31.452Z,11.75
2023-02-24T16:58:36.443Z,12.23
2023-02-24T17:03:43.925Z,12.69
2023-02-24T17:08:47.697Z,12.01
2023-02-24T17:13:52.533Z,12.21
2023-02-24T17:18:55.927Z,12.38
2023-02-24T17:23:59.427Z,12.07
2023-02-24T17:29:04.414Z,12.33
2023-02-24T17:34:07.866Z,12.89
2023-02-24T17:39:11.351Z,12.60
2023-02-24T17:44:16.286Z,12.28
2023-02-24T17:49:19.724Z,12.17
2023-02-24T17:54:23.181Z,12.63
2023-02-24T17:59:28.073Z,12.47
2023-02-24T18:04:31.863Z,12.47
2023-02-24T18:09:35.468Z,12.09
2023-02-24T18:14:40.340Z,11.97
2023-02-24T18:19:43.829Z,12.43
2023-02-24T18:24:47.317Z,12.42
2023-02-24T18:29:52.089Z,12.57
2023-02-24T18:34:55.953Z,12.52
2023-02-24T18:39:59.403Z,12.27
2023-02-24T18:45:04.469Z,12.42
2023-02-24T18:50:09.404Z,12.76
2023-02-24T18:55:12.865Z,12.46
2023-02-24T19:00:18.748Z,13.03
2023-02-24T19:05:22.229Z,12.86
2023-02-24T19:10:25.660Z,12.45
2023-02-24T19:15:30.544Z,12.19
2023-02-24T19:20:34.114Z,12.58
2023-02-24T19:25:37.730Z,12.72
2023-02-24T19:30:42.564Z,12.26
2023-02-24T19:35:46.028Z,12.49
2023-02-24T19:40:49.512Z,11.93
2023-02-24T19:45:54.360Z,12.55
2023-02-24T19:50:57.789Z,12.74
2023-02-24T19:56:01.288Z,12.46
2023-02-24T20:01:09.202Z,12.55
2023-02-24T20:06:18.302Z,12.42
2023-02-24T20:11:22.205Z,12.62
2023-02-24T20:16:31.965Z,12.19
2023-02-24T20:21:35.457Z,12.46
2023-02-24T20:26:41.035Z,12.47
2023-02-24T20:31:46.308Z,12.04
2023-02-24T20:36:49.913Z,11.77
2023-02-24T20:41:54.945Z,12.31
2023-02-24T20:46:59.738Z,11.35
2023-02-24T20:52:03.193Z,12.54
2023-02-24T20:57:08.861Z,11.87
2023-02-24T21:02:13.761Z,11.99
2023-02-24T21:07:17.273Z,12.23
2023-02-24T21:12:20.750Z,11.60
2023-02-24T21:17:25.571Z,11.82
2023-02-24T21:22:31.109Z,11.61
2023-02-24T21:27:34.717Z,11.57
2023-02-24T21:32:39.598Z,12.25
2023-02-24T21:37:43.221Z,11.02
2023-02-24T21:42:47.547Z,11.86
2023-02-24T21:47:52.434Z,11.38
2023-02-24T21:52:55.890Z,11.15
2023-02-24T21:57:59.476Z,10.98
2023-02-24T22:03:04.431Z,11.91
2023-02-24T22:08:08.215Z,10.43
2023-02-24T22:13:11.645Z,11.61
2023-02-24T22:18:16.670Z,11.48
2023-02-24T22:23:20.134Z,10.82
2023-02-24T22:28:23.537Z,11.61
2023-02-24T22:33:29.040Z,10.79
2023-02-24T22:38:32.997Z,11.50
2023-02-24T22:43:36.630Z,11.76
2023-02-24T22:48:41.716Z,11.11
2023-02-24T22:53:46.594Z,11.43
2023-02-24T22:58:50.835Z,11.46
2023-02-24T23:03:56.131Z,11.24
2023-02-24T23:09:00.799Z,12.10
2023-02-24T23:14:06.774Z,11.11
2023-02-24T23:19:16.067Z,11.54
2023-02-24T23:24:21.576Z,11.17
2023-02-24T23:29:26.506Z,11.15
2023-02-24T23:34:31.498Z,11.10
2023-02-24T23:39:35.023Z,11.19
2023-02-24T23:44:38.936Z,10.25
2023-02-24T23:49:48.365Z,11.79
2023-02-24T23:54:53.032Z,11.63
2023-02-24T23:59:56.499Z,11.03
